Time;durP1;ratioP1;P1;durP2;ratioP2;P2;SDS_P1;SDS_P2;PMS_P1;PMS_P2;Temp;Humidity;BMP_temperature;BMP_pressure;BME280_temperature;BME280_humidity;BME280_pressure;Samples;Min_cycle;Max_cycle;Signal;HPM_P1;HPM_P2
2023/03/13 00:01:49;;;;;;;;;;;;;;;17.69;45.79;101250.78;5079385;28;1170;-47
2023/03/13 00:04:14;;;;;;;;;;;;;;;16.86;46.40;101249.47;5071283;28;1059;-44
2023/03/13 00:06:41;;;;;;;;;;;;;;;16.58;46.14;101247.91;5059678;28;1910;-44
2023/03/13 00:09:07;;;;;;;;;;;;;;;17.70;45.94;101252.44;5076852;28;1120;-46
2023/03/13 00:11:33;;;;;;;;;;;;;;;16.96;46.92;101254.25;5079276;28;1521;-44
2023/03/13 00:13:59;;;;;;;;;;;;;;;16.60;46.33;101260.25;5060819;28;1051;-48
2023/03/13 00:16:24;;;;;;;;;;;;;;;16.41;46.07;101254.34;5070924;28;1159;-43
2023/03/13 00:18:51;;;;;;;;;;;;;;;17.22;46.49;101244.25;5062945;28;1155;-47
2023/03/13 00:21:17;;;;;;;;;;;;;;;16.82;47.30;101251.09;5079224;28;1218;-44
2023/03/13 00:23:42;;;;;;;;;;;;;;;18.70;43.94;101249.59;5077978;28;1071;-45
2023/03/13 00:26:09;;;;;;;;;;;;;;;17.43;46.41;101250.69;5078864;28;1942;-44
2023/03/13 00:28:34;;;;;;;;;;;;;;;17.03;46.27;101256.78;5073673;28;1063;-40
2023/03/13 00:31:04;;;;;;;;;;;;;;;16.69;45.79;101255.13;5078982;28;1063;-41
2023/03/13 00:33:30;;;;;;;;;;;;;;;17.27;46.22;101257.19;5078412;28;1034;-44
2023/03/13 00:35:59;;;;;;;;;;;;;;;17.03;46.78;101262.28;5078967;28;1203;-46
2023/03/13 00:38:26;;;;;;;;;;;;;;;16.61;46.47;101261.09;5064892;28;1027;-45
2023/03/13 00:40:57;;;;;;;;;;;;;;;17.77;45.90;101261.25;5068856;28;1070;-45
2023/03/13 00:43:23;;;;;;;;;;;;;;;16.95;46.65;101263.56;5064891;28;1223;-43
2023/03/13 00:45:48;;;;;;;;;;;;;;;17.28;46.62;101269.84;5078319;28;1963;-44
2023/03/13 00:48:13;;;;;;;;;;;;;;;17.88;45.73;101266.78;5060592;28;1118;-42
2023/03/13 00:50:39;;;;;;;;;;;;;;;16.96;46.67;101258.91;5078690;28;1055;-46
2023/03/13 00:53:04;;;;;;;;;;;;;;;16.66;46.10;101260.31;5066400;28;998;-41
2023/03/13 00:55:30;;;;;;;;;;;;;;;17.99;45.56;101268.50;5070981;28;1148;-44
2023/03/13 00:57:55;;;;;;;;;;;;;;;17.38;46.52;101267.13;5078358;28;1136;-43
2023/03/13 01:00:21;;;;;;;;;;;;;;;16.71;46.68;101260.34;5078844;28;1094;-45
2023/03/13 01:02:46;;;;;;;;;;;;;;;16.93;46.77;101263.03;5060248;28;1106;-41
2023/03/13 01:05:12;;;;;;;;;;;;;;;17.58;46.06;101260.06;5048568;28;1504;-43
2023/03/13 01:07:37;;;;;;;;;;;;;;;16.82;46.87;101264.03;5045367;28;2040;-48
2023/03/13 01:10:03;;;;;;;;;;;;;;;17.58;46.35;101273.84;5060171;28;1346;-39
2023/03/13 01:12:28;;;;;;;;;;;;;;;16.98;46.59;101268.53;5077355;28;1227;-44
2023/03/13 01:14:55;;;;;;;;;;;;;;;18.25;44.97;101266.63;5078009;28;1163;-46
2023/03/13 01:17:21;;;;;;;;;;;;;;;18.46;44.51;101267.47;5065377;28;1039;-44
2023/03/13 01:19:48;;;;;;;;;;;;;;;17.33;46.44;101271.78;5052679;28;1338;-44
2023/03/13 01:22:14;;;;;;;;;;;;;;;16.93;45.97;101263.84;5077973;28;1118;-42
2023/03/13 01:24:39;;;;;;;;;;;;;;;16.85;46.17;101275.28;5078021;28;1122;-46
2023/03/13 01:27:05;;;;;;;;;;;;;;;17.68;46.15;101284.03;5077578;28;1983;-44
2023/03/13 01:29:31;;;;;;;;;;;;;;;16.90;46.71;101289.09;5064992;28;900;-40
2023/03/13 01:31:57;;;;;;;;;;;;;;;17.05;46.82;101277.38;5058778;28;1131;-42
2023/03/13 01:34:23;;;;;;;;;;;;;;;17.41;46.31;101277.59;5059979;28;1119;-45
2023/03/13 01:36:51;;;;;;;;;;;;;;;16.72;46.49;101279.31;5059559;28;1249;-45
2023/03/13 01:39:17;;;;;;;;;;;;;;;17.22;46.79;101277.22;5059595;28;1302;-45
2023/03/13 01:41:42;;;;;;;;;;;;;;;17.17;46.52;101276.38;5069956;28;1138;-41
2023/03/13 01:44:17;;;;;;;;;;;;;;;16.69;46.29;101285.34;5077593;28;1173;-45
2023/03/13 01:46:42;;;;;;;;;;;;;;;16.50;45.82;101286.81;5059158;28;1902;-41
2023/03/13 01:49:34;;;;;;;;;;;;;;;17.47;45.78;101302.38;5077093;28;1183;-42
2023/03/13 01:52:07;;;;;;;;;;;;;;;16.65;46.68;101305.31;5077829;28;1043;-42
2023/03/13 01:54:38;;;;;;;;;;;;;;;17.85;45.62;101311.34;5045251;28;1135;-41
2023/03/13 01:57:04;;;;;;;;;;;;;;;17.25;46.12;101306.06;5059306;28;1175;-43
2023/03/13 01:59:31;;;;;;;;;;;;;;;16.70;46.55;101314.44;5059131;28;1233;-42
2023/03/13 02:01:58;;;;;;;;;;;;;;;18.05;45.07;101319.72;5059270;28;1330;-44
2023/03/13 02:04:23;;;;;;;;;;;;;;;16.92;46.76;101316.31;5057997;28;1083;-43
2023/03/13 02:06:49;;;;;;;;;;;;;;;16.55;46.29;101328.88;5057143;28;1975;-45
2023/03/13 02:09:16;;;;;;;;;;;;;;;16.62;46.36;101331.41;5056790;28;1302;-43
2023/03/13 02:11:47;;;;;;;;;;;;;;;17.56;46.14;101336.53;5077248;28;1214;-42
2023/03/13 02:14:13;;;;;;;;;;;;;;;16.77;46.49;101337.03;5058936;28;1074;-45
2023/03/13 02:16:39;;;;;;;;;;;;;;;16.86;46.68;101333.81;5056528;28;1429;-47
2023/03/13 02:19:13;;;;;;;;;;;;;;;17.07;46.60;101332.09;5075759;28;1159;-44
2023/03/13 02:21:42;;;;;;;;;;;;;;;16.59;46.38;101334.66;5076718;28;1116;-43
2023/03/13 02:24:11;;;;;;;;;;;;;;;17.94;45.21;101348.28;5058417;28;1075;-44
2023/03/13 02:26:36;;;;;;;;;;;;;;;16.81;46.89;101353.00;5058712;28;1898;-42
2023/03/13 02:29:02;;;;;;;;;;;;;;;16.51;46.10;101359.81;5053199;28;1130;-46
2023/03/13 02:31:29;;;;;;;;;;;;;;;17.40;46.21;101358.44;5039201;28;1140;-45
2023/03/13 02:33:55;;;;;;;;;;;;;;;16.68;46.49;101363.31;5059431;28;1164;-41
2023/03/13 02:36:20;;;;;;;;;;;;;;;17.12;46.34;101358.75;5058608;28;1289;-44
2023/03/13 02:38:48;;;;;;;;;;;;;;;16.83;46.85;101364.53;5076154;28;1027;-47
2023/03/13 02:41:15;;;;;;;;;;;;;;;16.43;46.47;101369.38;5051806;28;1504;-43
2023/03/13 02:43:40;;;;;;;;;;;;;;;16.82;46.11;101373.88;5045964;28;1344;-42
2023/03/13 02:46:07;;;;;;;;;;;;;;;17.19;46.22;101373.09;5076169;28;1909;-41
2023/03/13 02:48:39;;;;;;;;;;;;;;;16.61;46.25;101376.41;5058541;28;1162;-43
2023/03/13 02:51:05;;;;;;;;;;;;;;;18.19;44.59;101382.50;5076484;28;1083;-43
2023/03/13 02:53:31;;;;;;;;;;;;;;;16.99;46.35;101382.03;5050925;28;1483;-41
2023/03/13 02:55:56;;;;;;;;;;;;;;;16.79;47.07;101382.63;5040531;28;1294;-44
2023/03/13 02:58:24;;;;;;;;;;;;;;;17.51;45.78;101378.56;5058064;28;1273;-46
2023/03/13 03:00:50;;;;;;;;;;;;;;;16.74;46.59;101384.22;5075907;28;1075;-44
2023/03/13 03:03:16;;;;;;;;;;;;;;;18.40;44.22;101388.91;5058233;28;1263;-44
2023/03/13 03:05:41;;;;;;;;;;;;;;;17.27;46.17;101383.63;5067788;28;1122;-43
2023/03/13 03:08:07;;;;;;;;;;;;;;;16.74;46.21;101392.47;5046787;28;1995;-42
2023/03/13 03:10:34;;;;;;;;;;;;;;;17.86;45.65;101392.78;5057968;28;1213;-45
2023/03/13 03:13:00;;;;;;;;;;;;;;;16.90;46.61;101411.88;5058588;28;1315;-43
2023/03/13 03:15:25;;;;;;;;;;;;;;;16.69;46.07;101410.81;5057879;28;1322;-45
2023/03/13 03:17:51;;;;;;;;;;;;;;;17.67;46.04;101408.91;5049488;28;1240;-41
2023/03/13 03:20:16;;;;;;;;;;;;;;;16.93;46.45;101417.69;5040158;28;1139;-44
2023/03/13 03:22:42;;;;;;;;;;;;;;;17.63;45.76;101419.63;5058087;28;1147;-47
2023/03/13 03:25:08;;;;;;;;;;;;;;;18.19;44.41;101415.53;5058161;28;1211;-46
2023/03/13 03:27:35;;;;;;;;;;;;;;;16.94;46.55;101421.25;5076189;28;1983;-46
2023/03/13 03:30:03;;;;;;;;;;;;;;;18.01;45.76;101414.09;5048039;28;1505;-41
2023/03/13 03:32:29;;;;;;;;;;;;;;;17.27;46.45;101419.34;5047737;28;1120;-42
2023/03/13 03:34:54;;;;;;;;;;;;;;;16.95;46.10;101420.16;5058591;28;1242;-42
2023/03/13 03:37:20;;;;;;;;;;;;;;;16.79;46.21;101421.06;5061880;28;2148;-44
2023/03/13 03:39:46;;;;;;;;;;;;;;;17.30;46.51;101429.81;5078988;28;1039;-47
2023/03/13 03:42:11;;;;;;;;;;;;;;;16.69;46.69;101428.13;5051776;28;1611;-46
2023/03/13 03:44:37;;;;;;;;;;;;;;;18.07;45.24;101432.28;5057030;28;1166;-43
2023/03/13 03:47:03;;;;;;;;;;;;;;;17.12;46.33;101424.72;5061781;28;1902;-45
2023/03/13 03:49:33;;;;;;;;;;;;;;;17.92;45.78;101428.34;5048860;28;1154;-41
2023/03/13 03:51:59;;;;;;;;;;;;;;;18.11;45.17;101428.72;5061339;28;1134;-45
2023/03/13 03:54:30;;;;;;;;;;;;;;;17.13;46.36;101437.38;5053566;28;1345;-48
2023/03/13 03:56:57;;;;;;;;;;;;;;;16.89;45.82;101432.22;5061934;28;1660;-44
2023/03/13 03:59:22;;;;;;;;;;;;;;;16.71;45.45;101433.38;5079225;28;1118;-43
2023/03/13 04:01:55;;;;;;;;;;;;;;;17.58;45.78;101439.63;5061406;28;1171;-44
2023/03/13 04:04:22;;;;;;;;;;;;;;;16.82;46.68;101439.81;5061611;28;1190;-44
2023/03/13 04:06:53;;;;;;;;;;;;;;;16.54;45.93;101442.50;5047470;28;1951;-41
2023/03/13 04:09:19;;;;;;;;;;;;;;;16.60;45.93;101451.63;5060497;28;1452;-44
2023/03/13 04:11:45;;;;;;;;;;;;;;;16.82;46.78;101445.28;5078758;28;1098;-44
2023/03/13 04:14:11;;;;;;;;;;;;;;;16.45;46.58;101445.97;5061374;28;1245;-46
2023/03/13 04:16:36;;;;;;;;;;;;;;;17.52;45.53;101453.63;5079136;28;1142;-47
2023/03/13 04:19:03;;;;;;;;;;;;;;;16.74;46.62;101457.56;5050402;28;1292;-48
2023/03/13 04:21:29;;;;;;;;;;;;;;;16.48;46.22;101471.00;5061050;28;1217;-43
2023/03/13 04:24:02;;;;;;;;;;;;;;;16.22;45.88;101458.88;5061057;28;1159;-43
2023/03/13 04:26:28;;;;;;;;;;;;;;;16.16;45.35;101459.88;5061021;28;1973;-42
2023/03/13 04:28:56;;;;;;;;;;;;;;;17.11;45.82;101467.88;5061096;28;1149;-42
2023/03/13 04:31:37;;;;;;;;;;;;;;;16.24;46.83;101465.75;5044291;28;1432;-42
2023/03/13 04:34:31;;;;;;;;;;;;;;;16.08;46.32;101477.59;5053752;28;1211;-44
2023/03/13 04:37:26;;;;;;;;;;;;;;;16.74;46.39;101485.00;5040843;28;1450;-45
2023/03/13 04:40:18;;;;;;;;;;;;;;;16.13;46.70;101482.31;5054593;28;1340;-41
2023/03/13 04:43:09;;;;;;;;;;;;;;;17.55;45.40;101477.84;5041972;28;1069;-43
2023/03/13 04:46:01;;;;;;;;;;;;;;;16.31;47.03;101489.44;5054148;28;1906;-45
2023/03/13 04:48:46;;;;;;;;;;;;;;;16.12;46.43;101494.38;5021038;28;1241;-46
2023/03/13 04:51:45;;;;;;;;;;;;;;;16.57;46.56;101493.34;5034162;28;1180;-49
2023/03/13 04:54:22;;;;;;;;;;;;;;;16.57;45.99;101496.09;5069454;28;1381;-52
2023/03/13 04:56:51;;;;;;;;;;;;;;;16.89;45.64;101493.47;5063272;28;992;-44
2023/03/13 04:59:48;;;;;;;;;;;;;;;17.41;44.96;101507.72;5050506;28;1198;-46
2023/03/13 05:02:34;;;;;;;;;;;;;;;16.57;45.93;101515.31;5057199;28;1249;-49
2023/03/13 05:05:18;;;;;;;;;;;;;;;16.17;45.72;101516.41;5043014;28;985;-48
2023/03/13 05:08:18;;;;;;;;;;;;;;;16.01;45.25;101526.34;4977474;28;1906;-47
2023/03/13 05:10:56;;;;;;;;;;;;;;;17.04;45.15;101524.91;5022160;28;1313;-45
2023/03/13 05:13:35;;;;;;;;;;;;;;;16.21;46.13;101531.28;5046249;28;1365;-50
2023/03/13 05:16:11;;;;;;;;;;;;;;;16.70;46.07;101533.31;5039527;28;1922;-47
2023/03/13 05:19:15;;;;;;;;;;;;;;;16.31;46.51;101531.41;5030544;28;1190;-47
2023/03/13 05:22:07;;;;;;;;;;;;;;;17.64;44.75;101542.25;5055907;28;1199;-47
2023/03/13 05:24:53;;;;;;;;;;;;;;;17.04;45.87;101535.91;5039355;28;1062;-46
2023/03/13 05:27:47;;;;;;;;;;;;;;;16.42;46.08;101540.63;5049754;28;1902;-45
2023/03/13 05:30:45;;;;;;;;;;;;;;;16.53;46.00;101536.13;5009263;28;1193;-44
2023/03/13 05:33:19;;;;;;;;;;;;;;;17.04;45.77;101534.00;5045651;28;1053;-45
2023/03/13 05:36:06;;;;;;;;;;;;;;;16.42;46.28;101540.63;5039803;28;1165;-48
2023/03/13 05:38:58;;;;;;;;;;;;;;;16.25;46.21;101549.72;5051130;28;1191;-45
2023/03/13 05:41:53;;;;;;;;;;;;;;;16.67;46.34;101551.13;5002365;28;1508;-50
2023/03/13 05:44:41;;;;;;;;;;;;;;;17.79;44.80;101555.31;5009342;28;1410;-46
2023/03/13 05:47:13;;;;;;;;;;;;;;;18.05;44.27;101564.63;5056639;28;1909;-50
2023/03/13 05:49:44;;;;;;;;;;;;;;;16.85;46.22;101569.19;5044507;28;1160;-47
2023/03/13 05:52:28;;;;;;;;;;;;;;;16.48;46.05;101567.09;5047413;28;1266;-44
2023/03/13 05:55:09;;;;;;;;;;;;;;;16.41;45.99;101569.16;5031767;28;1379;-46
2023/03/13 05:58:07;;;;;;;;;;;;;;;16.90;46.23;101574.78;5028324;28;1436;-47
2023/03/13 06:00:47;;;;;;;;;;;;;;;16.55;47.17;101573.22;5039632;28;1190;-44
2023/03/13 06:03:38;;;;;;;;;;;;;;;17.70;45.18;101568.75;5010368;28;1172;-46
2023/03/13 06:06:05;;;;;;;;;;;;;;;16.71;46.70;101576.97;5037404;28;1977;-45
2023/03/13 06:08:44;;;;;;;;;;;;;;;16.42;46.04;101579.06;5039210;28;1114;-47
2023/03/13 06:11:10;;;;;;;;;;;;;;;16.34;46.14;101580.34;5056827;28;1068;-44
2023/03/13 06:13:36;;;;;;;;;;;;;;;17.48;44.08;101581.75;5039044;28;1333;-47
2023/03/13 06:16:15;;;;;;;;;;;;;;;16.86;45.48;101589.28;5027451;28;1416;-44
2023/03/13 06:18:43;;;;;;;;;;;;;;;16.56;46.10;101591.34;5037762;28;1322;-47
2023/03/13 06:21:09;;;;;;;;;;;;;;;16.33;46.66;101594.31;5051693;28;1406;-46
2023/03/13 06:23:34;;;;;;;;;;;;;;;16.18;47.09;101594.91;5054555;28;1243;-44
2023/03/13 06:26:00;;;;;;;;;;;;;;;16.02;47.56;101593.81;5044577;28;1991;-44
2023/03/13 06:28:25;;;;;;;;;;;;;;;15.89;47.76;101593.09;5064637;28;1127;-46
2023/03/13 06:30:51;;;;;;;;;;;;;;;15.82;48.02;101586.94;5071767;28;1083;-44
2023/03/13 06:33:16;;;;;;;;;;;;;;;15.73;48.02;101591.13;5052826;28;1440;-45
2023/03/13 06:35:42;;;;;;;;;;;;;;;15.62;48.58;101597.53;5069252;28;1080;-47
2023/03/13 06:38:08;;;;;;;;;;;;;;;15.48;48.63;101594.25;5076488;28;1216;-45
2023/03/13 06:40:33;;;;;;;;;;;;;;;15.37;48.79;101588.56;5069192;28;1178;-46
2023/03/13 06:42:59;;;;;;;;;;;;;;;15.31;49.15;101594.22;5056019;28;886;-46
2023/03/13 06:45:24;;;;;;;;;;;;;;;15.26;48.86;101589.44;5052666;28;1167;-43
2023/03/13 06:47:51;;;;;;;;;;;;;;;16.90;45.29;101588.53;5045008;28;1983;-50
2023/03/13 06:50:16;;;;;;;;;;;;;;;16.42;46.09;101596.38;5063621;28;944;-46
2023/03/13 06:52:42;;;;;;;;;;;;;;;15.82;47.68;101586.09;5057473;28;1287;-46
2023/03/13 06:55:08;;;;;;;;;;;;;;;15.58;48.41;101591.69;5063176;28;1462;-45
2023/03/13 06:57:33;;;;;;;;;;;;;;;15.43;48.59;101591.41;5070324;28;1006;-49
2023/03/13 06:59:59;;;;;;;;;;;;;;;15.29;48.82;101590.88;5053827;28;1167;-43
2023/03/13 07:02:24;;;;;;;;;;;;;;;15.23;49.21;101592.69;5041516;28;1283;-44
2023/03/13 07:04:50;;;;;;;;;;;;;;;16.83;45.30;101584.25;5045916;28;1219;-47
2023/03/13 07:07:15;;;;;;;;;;;;;;;16.39;46.11;101587.81;5064927;28;1975;-42
2023/03/13 07:09:41;;;;;;;;;;;;;;;15.81;47.60;101581.69;5045993;28;1028;-46
2023/03/13 07:12:06;;;;;;;;;;;;;;;15.57;48.41;101584.53;5075755;28;1197;-46
2023/03/13 07:14:32;;;;;;;;;;;;;;;15.40;48.56;101585.34;5076092;28;1248;-44
2023/03/13 07:16:58;;;;;;;;;;;;;;;15.30;48.97;101587.88;5075508;28;1127;-38
2023/03/13 07:19:23;;;;;;;;;;;;;;;16.51;46.30;101594.03;5069687;28;1105;-39
2023/03/13 07:21:49;;;;;;;;;;;;;;;17.14;44.35;101591.00;5056259;28;1223;-42
2023/03/13 07:24:14;;;;;;;;;;;;;;;16.18;46.73;101592.16;5070175;28;1106;-46
2023/03/13 07:26:40;;;;;;;;;;;;;;;15.76;47.94;101585.16;5068674;28;1914;-42
2023/03/13 07:29:05;;;;;;;;;;;;;;;15.55;48.23;101589.44;5070784;28;1091;-42
2023/03/13 07:31:32;;;;;;;;;;;;;;;15.37;48.70;101591.31;5069766;28;1059;-45
2023/03/13 07:33:58;;;;;;;;;;;;;;;15.61;48.11;101587.63;5055875;28;1172;-45
2023/03/13 07:36:24;;;;;;;;;;;;;;;17.17;44.47;101586.91;5073304;28;1083;-40
2023/03/13 07:38:49;;;;;;;;;;;;;;;16.51;45.92;101596.78;5066757;28;1190;-42
2023/03/13 07:41:15;;;;;;;;;;;;;;;15.91;47.45;101592.84;5059929;28;1130;-39
2023/03/13 07:43:40;;;;;;;;;;;;;;;15.68;48.05;101594.63;5058955;28;1263;-40
2023/03/13 07:46:06;;;;;;;;;;;;;;;15.47;48.54;101589.84;5057191;28;1909;-39
2023/03/13 07:48:33;;;;;;;;;;;;;;;15.37;48.85;101590.47;5057324;28;948;-44
2023/03/13 07:50:59;;;;;;;;;;;;;;;16.02;47.13;101589.19;5055680;28;1059;-42
2023/03/13 07:53:24;;;;;;;;;;;;;;;17.37;43.85;101584.38;5055507;28;1043;-42
2023/03/13 07:55:50;;;;;;;;;;;;;;;16.30;46.24;101581.06;5055900;28;1089;-40
2023/03/13 07:58:16;;;;;;;;;;;;;;;15.87;47.28;101586.19;5055784;28;1114;-37
2023/03/13 08:00:42;;;;;;;;;;;;;;;15.62;48.05;101589.28;5069110;28;1207;-40
2023/03/13 08:03:09;;;;;;;;;;;;;;;15.46;48.16;101586.28;5055608;28;1027;-37
2023/03/13 08:05:34;;;;;;;;;;;;;;;15.32;48.37;101602.19;5056831;28;1095;-40
2023/03/13 08:07:59;;;;;;;;;;;;;;;16.30;46.42;101584.66;5067441;28;1906;-38
2023/03/13 08:10:25;;;;;;;;;;;;;;;16.95;44.45;101585.00;5054815;28;1036;-39
2023/03/13 08:12:50;;;;;;;;;;;;;;;16.05;46.44;101588.69;5055649;28;1148;-43
2023/03/13 08:15:20;;;;;;;;;;;;;;;15.70;47.49;101592.47;5055856;28;1043;-38
2023/03/13 08:17:45;;;;;;;;;;;;;;;15.46;47.90;101585.44;5054763;28;1273;-37
2023/03/13 08:20:11;;;;;;;;;;;;;;;15.32;48.19;101587.63;5054511;28;981;-40
2023/03/13 08:22:37;;;;;;;;;;;;;;;16.19;46.43;101582.84;5071383;28;1139;-43
2023/03/13 08:25:02;;;;;;;;;;;;;;;16.97;44.10;101569.09;5079139;28;1135;-43
2023/03/13 08:27:28;;;;;;;;;;;;;;;15.98;46.67;101570.75;5078781;28;1985;-42
2023/03/13 08:29:54;;;;;;;;;;;;;;;15.64;47.30;101578.91;5078684;28;1113;-40
2023/03/13 08:32:20;;;;;;;;;;;;;;;15.42;47.69;101571.41;5069642;28;1083;-43
2023/03/13 08:34:46;;;;;;;;;;;;;;;16.06;46.29;101573.88;5067160;28;1102;-41
2023/03/13 08:37:14;;;;;;;;;;;;;;;16.99;44.06;101566.91;5077116;28;1154;-39
2023/03/13 08:39:39;;;;;;;;;;;;;;;16.07;46.02;101571.97;5058738;28;1071;-42
2023/03/13 08:42:06;;;;;;;;;;;;;;;15.68;46.98;101571.84;5074013;28;1138;-38
2023/03/13 08:44:31;;;;;;;;;;;;;;;15.49;47.52;101571.25;5068176;28;965;-43
2023/03/13 08:46:58;;;;;;;;;;;;;;;15.36;47.55;101570.47;5067157;28;1906;-40
2023/03/13 08:49:24;;;;;;;;;;;;;;;15.24;48.07;101575.19;5055827;28;1535;-41
2023/03/13 08:51:49;;;;;;;;;;;;;;;16.74;44.30;101573.72;5061336;28;1048;-43
2023/03/13 08:54:15;;;;;;;;;;;;;;;16.81;44.05;101575.47;5058030;28;1147;-43
2023/03/13 08:56:42;;;;;;;;;;;;;;;15.93;46.08;101570.66;5057569;28;1030;-38
2023/03/13 08:59:08;;;;;;;;;;;;;;;15.66;47.01;101579.50;5059736;28;1366;-42
2023/03/13 09:01:34;;;;;;;;;;;;;;;15.49;47.19;101582.22;5069268;28;1134;-43
2023/03/13 09:03:59;;;;;;;;;;;;;;;15.29;47.78;101572.53;5059477;28;1099;-40
2023/03/13 09:06:25;;;;;;;;;;;;;;;16.83;44.24;101576.03;5077951;28;1953;-39
2023/03/13 09:08:51;;;;;;;;;;;;;;;16.27;45.40;101574.19;5068401;28;1210;-44
2023/03/13 09:11:17;;;;;;;;;;;;;;;15.74;46.51;101565.38;5078482;28;1080;-38
2023/03/13 09:13:43;;;;;;;;;;;;;;;15.54;46.96;101560.38;5064603;28;1181;-38
2023/03/13 09:16:10;;;;;;;;;;;;;;;15.30;47.26;101560.50;5069156;28;1097;-42
2023/03/13 09:18:35;;;;;;;;;;;;;;;16.84;43.94;101566.72;5073056;28;1088;-39
2023/03/13 09:21:01;;;;;;;;;;;;;;;16.96;43.37;101569.34;5065907;28;955;-43
2023/03/13 09:23:27;;;;;;;;;;;;;;;16.05;45.45;101563.97;5072630;28;1118;-45
2023/03/13 09:25:52;;;;;;;;;;;;;;;15.78;46.17;101560.22;5069162;28;1053;-43
2023/03/13 09:28:18;;;;;;;;;;;;;;;15.55;46.85;101557.38;5072830;28;1984;-42
2023/03/13 09:30:44;;;;;;;;;;;;;;;15.36;46.97;101561.41;5074723;28;1267;-41
2023/03/13 09:33:09;;;;;;;;;;;;;;;15.25;47.41;101563.16;5064403;28;1197;-40
2023/03/13 09:35:36;;;;;;;;;;;;;;;16.84;43.63;101561.22;5066727;28;1214;-41
2023/03/13 09:38:02;;;;;;;;;;;;;;;16.44;44.40;101552.19;5068203;28;1098;-40
2023/03/13 09:40:27;;;;;;;;;;;;;;;15.82;45.67;101567.75;5057342;28;1239;-43
2023/03/13 09:42:57;;;;;;;;;;;;;;;15.51;46.56;101578.13;5072420;28;1072;-40
2023/03/13 09:45:22;;;;;;;;;;;;;;;15.40;46.66;101577.13;5063992;28;1163;-43
2023/03/13 09:47:51;;;;;;;;;;;;;;;15.26;47.14;101575.75;5057020;28;1955;-39
2023/03/13 09:50:18;;;;;;;;;;;;;;;15.70;45.83;101586.16;5048667;28;1146;-42
2023/03/13 09:52:44;;;;;;;;;;;;;;;17.16;42.40;101579.75;5058834;28;1064;-42
2023/03/13 09:55:12;;;;;;;;;;;;;;;16.38;43.88;101581.50;5049712;28;1187;-40
2023/03/13 09:57:39;;;;;;;;;;;;;;;15.81;45.46;101573.47;5039100;28;1151;-42
2023/03/13 10:00:10;;;;;;;;;;;;;;;15.55;45.87;101567.53;5039410;28;949;-37
2023/03/13 10:02:36;;;;;;;;;;;;;;;15.40;46.32;101571.66;5056938;28;1067;-41
2023/03/13 10:05:04;;;;;;;;;;;;;;;16.03;44.92;101566.16;5039739;28;1247;-38
2023/03/13 10:07:29;;;;;;;;;;;;;;;17.32;41.61;101572.50;5039113;28;1917;-43
2023/03/13 10:09:55;;;;;;;;;;;;;;;16.28;44.07;101575.03;5055964;28;1078;-43
2023/03/13 10:12:24;;;;;;;;;;;;;;;15.80;45.15;101577.31;5057049;28;1172;-45
2023/03/13 10:14:58;;;;;;;;;;;;;;;15.59;45.46;101571.44;5051403;28;1207;-45
2023/03/13 10:17:24;;;;;;;;;;;;;;;15.38;46.09;101568.31;5051146;28;1040;-39
2023/03/13 10:19:53;;;;;;;;;;;;;;;16.48;43.56;101568.97;5056253;28;1006;-41
2023/03/13 10:22:19;;;;;;;;;;;;;;;16.64;42.89;101559.88;5056561;28;986;-44
2023/03/13 10:24:57;;;;;;;;;;;;;;;15.89;44.75;101567.56;5051834;28;1025;-42
2023/03/13 10:27:22;;;;;;;;;;;;;;;15.58;45.38;101569.75;5038452;28;1919;-39
2023/03/13 10:29:48;;;;;;;;;;;;;;;15.40;45.70;101560.69;5056866;28;1052;-39
2023/03/13 10:32:14;;;;;;;;;;;;;;;16.55;43.45;101564.13;5053632;28;1139;-45
2023/03/13 10:34:56;;;;;;;;;;;;;;;16.90;42.27;101560.19;5056468;28;1184;-43
2023/03/13 10:37:22;;;;;;;;;;;;;;;15.92;44.66;101545.09;5056154;28;1048;-40
2023/03/13 10:39:48;;;;;;;;;;;;;;;15.66;45.07;101552.91;5056311;28;1035;-42
2023/03/13 10:42:25;;;;;;;;;;;;;;;15.49;45.38;101552.06;5056612;28;1068;-40
2023/03/13 10:44:55;;;;;;;;;;;;;;;15.35;45.78;101549.63;5038089;28;1168;-43
2023/03/13 10:47:20;;;;;;;;;;;;;;;16.60;42.98;101543.06;5068808;28;1901;-40
2023/03/13 10:49:54;;;;;;;;;;;;;;;16.89;42.25;101542.09;5070686;28;1143;-41
2023/03/13 10:52:30;;;;;;;;;;;;;;;15.94;44.52;101544.88;5067461;28;1035;-44
2023/03/13 10:54:59;;;;;;;;;;;;;;;15.58;45.07;101545.09;5063316;28;1044;-42
2023/03/13 10:57:24;;;;;;;;;;;;;;;15.44;45.43;101536.34;5062292;28;1086;-42
2023/03/13 10:59:50;;;;;;;;;;;;;;;15.37;45.92;101541.16;5057404;28;1258;-40
2023/03/13 11:02:34;;;;;;;;;;;;;;;16.30;43.50;101534.41;5056503;28;1215;-44
2023/03/13 11:05:00;;;;;;;;;;;;;;;17.00;41.66;101527.38;5055938;28;1302;-42
2023/03/13 11:07:31;;;;;;;;;;;;;;;16.05;43.81;101533.81;5038738;28;1913;-42
2023/03/13 11:09:58;;;;;;;;;;;;;;;15.69;44.91;101522.25;5056146;28;1251;-40
2023/03/13 11:12:24;;;;;;;;;;;;;;;15.50;45.50;101532.63;5056731;28;1191;-44
2023/03/13 11:14:55;;;;;;;;;;;;;;;15.34;45.84;101525.22;5056168;28;1262;-44
2023/03/13 11:17:23;;;;;;;;;;;;;;;16.84;42.51;101522.75;5069316;28;1265;-40
2023/03/13 11:19:49;;;;;;;;;;;;;;;16.70;42.69;101514.09;5030207;28;1199;-41
2023/03/13 11:22:29;;;;;;;;;;;;;;;15.94;44.26;101510.06;5055705;28;868;-44
2023/03/13 11:25:11;;;;;;;;;;;;;;;15.64;44.92;101511.22;5072580;28;897;-46
2023/03/13 11:27:55;;;;;;;;;;;;;;;15.47;45.43;101500.22;5038848;28;1992;-40
2023/03/13 11:30:33;;;;;;;;;;;;;;;15.29;45.83;101504.03;5052301;28;1028;-43
2023/03/13 11:32:59;;;;;;;;;;;;;;;16.31;43.71;101498.47;5034190;28;1830;-45
2023/03/13 11:35:27;;;;;;;;;;;;;;;17.34;41.26;101482.34;5053570;28;1108;-45
2023/03/13 11:37:54;;;;;;;;;;;;;;;16.21;43.57;101487.38;5071913;28;1056;-42
2023/03/13 11:40:21;;;;;;;;;;;;;;;15.82;44.36;101487.38;5074286;28;1043;-40
2023/03/13 11:43:05;;;;;;;;;;;;;;;15.54;45.30;101483.59;5056802;28;1308;-43
2023/03/13 11:46:03;;;;;;;;;;;;;;;15.38;45.57;101485.28;5067644;28;1229;-42
2023/03/13 11:48:34;;;;;;;;;;;;;;;15.30;45.79;101474.72;5014297;28;1914;-42
2023/03/13 11:51:12;;;;;;;;;;;;;;;16.92;41.90;101481.13;5072945;28;1168;-43
2023/03/13 11:53:50;;;;;;;;;;;;;;;16.47;42.87;101485.00;5075998;28;1464;-41
2023/03/13 11:56:15;;;;;;;;;;;;;;;15.85;44.25;101484.13;5076817;28;1134;-41
2023/03/13 11:58:47;;;;;;;;;;;;;;;15.56;45.17;101479.53;5063638;28;890;-41
2023/03/13 12:01:13;;;;;;;;;;;;;;;15.37;45.27;101472.66;5066874;28;1533;-40
2023/03/13 12:03:39;;;;;;;;;;;;;;;15.96;44.06;101480.44;5046252;28;1286;-42
2023/03/13 12:06:05;;;;;;;;;;;;;;;17.04;41.42;101476.31;5055741;28;1222;-44
2023/03/13 12:08:35;;;;;;;;;;;;;;;16.03;43.99;101467.41;5041779;28;1918;-41
2023/03/13 12:11:03;;;;;;;;;;;;;;;15.66;44.53;101475.31;5059300;28;912;-41
2023/03/13 12:13:34;;;;;;;;;;;;;;;15.44;45.07;101483.44;5039810;28;1278;-43
2023/03/13 12:16:01;;;;;;;;;;;;;;;15.35;45.33;101472.91;5055731;28;1044;-39
2023/03/13 12:18:26;;;;;;;;;;;;;;;16.53;42.94;101467.47;5064025;28;1262;-43
2023/03/13 12:20:57;;;;;;;;;;;;;;;17.40;40.95;101473.06;5065224;28;1273;-46
2023/03/13 12:23:27;;;;;;;;;;;;;;;16.22;43.37;101469.84;5040824;28;1062;-41
2023/03/13 12:26:01;;;;;;;;;;;;;;;15.78;44.47;101462.34;5058687;28;1262;-45
2023/03/13 12:28:27;;;;;;;;;;;;;;;15.56;44.81;101460.34;5059167;28;1914;-42
2023/03/13 12:30:58;;;;;;;;;;;;;;;15.43;45.04;101457.13;5061969;28;1176;-40
2023/03/13 12:33:25;;;;;;;;;;;;;;;15.22;45.75;101464.97;5041831;28;1063;-35
2023/03/13 12:36:03;;;;;;;;;;;;;;;16.72;42.16;101460.56;5052255;28;1088;-38
2023/03/13 12:38:48;;;;;;;;;;;;;;;16.68;42.31;101466.84;5078432;28;1111;-37
2023/03/13 12:41:23;;;;;;;;;;;;;;;15.87;44.11;101460.84;5055181;28;1179;-38
2023/03/13 12:43:49;;;;;;;;;;;;;;;15.59;44.92;101470.00;5076045;28;1127;-38
2023/03/13 12:46:15;;;;;;;;;;;;;;;15.40;45.11;101469.41;5069318;28;1906;-36
2023/03/13 12:48:41;;;;;;;;;;;;;;;15.37;45.18;101465.25;5068856;28;1051;-38
2023/03/13 12:51:15;;;;;;;;;;;;;;;16.97;41.66;101461.97;5075101;28;1381;-39
2023/03/13 12:53:41;;;;;;;;;;;;;;;16.37;42.96;101466.47;5048284;28;1257;-36
2023/03/13 12:56:18;;;;;;;;;;;;;;;15.81;44.31;101467.34;5073914;28;1064;-35
2023/03/13 12:58:48;;;;;;;;;;;;;;;15.53;45.07;101471.81;5066035;28;949;-36
2023/03/13 13:01:15;;;;;;;;;;;;;;;15.36;45.21;101473.72;5054954;28;1463;-42